Time,TemperatureF,DewpointF,PressureIn,WindDirection,WindDirectionDegrees,WindSpeedMPH,WindSpeedGustMPH,Humidity,HourlyPrecipIn,Conditions,Clouds,dailyrainin,SolarRadiationWatts/m^2,SoftwareType,DateUTC
2013-07-13 00:01:00,76.0,61.0,-100.00,South,188,10.0,20.0,60,0.00,,,0.00,0.000000,,2013-07-13 05:01:00,
2013-07-13 00:22:00,75.0,60.0,-100.00,South,190,11.0,19.0,60,0.00,,,0.00,0.000000,,2013-07-13 05:22:00,
2013-07-13 00:33:00,75.0,60.0,-100.00,South,190,11.0,19.0,60,0.00,,,0.00,0.000000,,2013-07-13 05:33:00,
2013-07-13 00:42:00,75.0,60.0,-100.00,South,190,11.0,19.0,60,0.00,,,0.00,0.000000,,2013-07-13 05:42:00,
2013-07-13 00:52:00,75.0,60.0,-100.00,South,190,11.0,19.0,60,0.00,,,0.00,0.000000,,2013-07-13 05:52:00,
2013-07-13 01:01:00,75.0,60.0,-100.00,South,190,11.0,19.0,60,0.00,,,0.00,0.000000,,2013-07-13 06:01:00,
2013-07-13 01:22:00,69.0,62.0,-100.00,West,279,6.0,17.0,78,0.03,,,0.03,0.000000,,2013-07-13 06:22:00,
2013-07-13 01:32:00,69.0,62.0,-100.00,West,279,6.0,17.0,78,0.03,,,0.03,0.000000,,2013-07-13 06:32:00,
2013-07-13 01:43:00,69.0,62.0,-100.00,West,279,6.0,17.0,78,0.03,,,0.03,0.000000,,2013-07-13 06:43:00,
2013-07-13 01:52:00,69.0,62.0,-100.00,West,279,6.0,17.0,78,0.03,,,0.03,0.000000,,2013-07-13 06:52:00,
2013-07-13 02:02:00,69.0,62.0,-100.00,West,279,6.0,17.0,78,0.03,,,0.03,0.000000,,2013-07-13 07:02:00,
2013-07-13 02:22:00,67.0,63.0,-100.00,SSW,192,12.0,22.0,87,0.17,,,0.20,0.000000,,2013-07-13 07:22:00,
2013-07-13 02:33:00,67.0,63.0,-100.00,SSW,192,12.0,22.0,87,0.17,,,0.20,0.000000,,2013-07-13 07:33:00,
2013-07-13 02:44:00,67.0,63.0,-100.00,SSW,192,12.0,22.0,87,0.17,,,0.20,0.000000,,2013-07-13 07:44:00,
2013-07-13 02:53:00,67.0,63.0,-100.00,SSW,192,12.0,22.0,87,0.17,,,0.20,0.000000,,2013-07-13 07:53:00,
2013-07-13 03:02:00,67.0,63.0,-100.00,SSW,192,12.0,22.0,87,0.17,,,0.20,0.000000,,2013-07-13 08:02:00,
2013-07-13 03:22:00,67.0,65.0,-100.00,SSW,198,14.0,25.0,93,0.07,,,0.27,0.000000,,2013-07-13 08:22:00,
2013-07-13 03:33:00,67.0,65.0,-100.00,SSW,198,14.0,25.0,93,0.07,,,0.27,0.000000,,2013-07-13 08:33:00,
2013-07-13 03:43:00,67.0,65.0,-100.00,SSW,198,14.0,25.0,93,0.07,,,0.27,0.000000,,2013-07-13 08:43:00,
2013-07-13 03:52:00,67.0,65.0,-100.00,SSW,198,14.0,25.0,93,0.07,,,0.27,0.000000,,2013-07-13 08:52:00,
2013-07-13 04:02:00,67.0,65.0,-100.00,SSW,198,14.0,25.0,93,0.07,,,0.27,0.000000,,2013-07-13 09:02:00,
2013-07-13 04:22:00,67.0,65.0,-100.00,SSW,209,9.0,20.0,93,0.00,,,0.27,0.000000,,2013-07-13 09:22:00,
2013-07-13 04:33:00,67.0,65.0,-100.00,SSW,209,9.0,20.0,93,0.00,,,0.27,0.000000,,2013-07-13 09:33:00,
2013-07-13 04:43:00,67.0,65.0,-100.00,SSW,209,9.0,20.0,93,0.00,,,0.27,0.000000,,2013-07-13 09:43:00,
2013-07-13 04:53:00,67.0,65.0,-100.00,SSW,209,9.0,20.0,93,0.00,,,0.27,0.000000,,2013-07-13 09:53:00,
2013-07-13 05:01:00,67.0,65.0,-100.00,SSW,209,9.0,20.0,93,0.00,,,0.27,0.000000,,2013-07-13 10:01:00,
2013-07-13 05:22:00,67.0,64.0,-100.00,SSW,203,7.0,14.0,89,0.00,,,0.27,0.000000,,2013-07-13 10:22:00,
2013-07-13 05:32:00,67.0,64.0,-100.00,SSW,203,7.0,14.0,89,0.00,,,0.27,0.000000,,2013-07-13 10:32:00,
2013-07-13 05:43:00,67.0,64.0,-100.00,SSW,203,7.0,14.0,89,0.00,,,0.27,0.000000,,2013-07-13 10:43:00,
2013-07-13 05:52:00,67.0,64.0,-100.00,SSW,203,7.0,14.0,89,0.00,,,0.27,0.000000,,2013-07-13 10:52:00,
2013-07-13 06:02:00,67.0,64.0,-100.00,SSW,203,7.0,14.0,89,0.00,,,0.27,0.000000,,2013-07-13 11:02:00,
2013-07-13 06:22:00,67.0,63.0,-100.00,SSW,211,7.0,15.0,87,0.00,,,0.27,4.000000,,2013-07-13 11:22:00,
2013-07-13 06:32:00,67.0,63.0,-100.00,SSW,211,7.0,15.0,87,0.00,,,0.27,4.000000,,2013-07-13 11:32:00,
2013-07-13 06:43:00,67.0,63.0,-100.00,SSW,211,7.0,15.0,87,0.00,,,0.27,4.000000,,2013-07-13 11:43:00,
2013-07-13 06:52:00,67.0,63.0,-100.00,SSW,211,7.0,15.0,87,0.00,,,0.27,4.000000,,2013-07-13 11:52:00,
2013-07-13 07:02:00,67.0,63.0,-100.00,SSW,211,7.0,15.0,87,0.00,,,0.27,4.000000,,2013-07-13 12:02:00,
2013-07-13 07:22:00,68.0,64.0,-100.00,SW,224,7.0,11.0,87,0.00,,,0.27,73.000000,,2013-07-13 12:22:00,
2013-07-13 07:32:00,68.0,64.0,-100.00,SW,224,7.0,11.0,87,0.00,,,0.27,73.000000,,2013-07-13 12:32:00,
2013-07-13 07:43:00,68.0,64.0,-100.00,SW,224,7.0,11.0,87,0.00,,,0.27,73.000000,,2013-07-13 12:43:00,
2013-07-13 07:52:00,68.0,64.0,-100.00,SW,224,7.0,11.0,87,0.00,,,0.27,73.000000,,2013-07-13 12:52:00,
2013-07-13 08:01:00,68.0,64.0,-100.00,SW,224,7.0,11.0,87,0.00,,,0.27,73.000000,,2013-07-13 13:01:00,
2013-07-13 08:22:00,71.0,65.0,-100.00,SW,219,9.0,15.0,82,0.00,,,0.27,270.000000,,2013-07-13 13:22:00,
2013-07-13 08:32:00,71.0,65.0,-100.00,SW,219,9.0,15.0,82,0.00,,,0.27,270.000000,,2013-07-13 13:32:00,
2013-07-13 08:43:00,71.0,65.0,-100.00,SW,219,9.0,15.0,82,0.00,,,0.27,270.000000,,2013-07-13 13:43:00,
2013-07-13 08:53:00,71.0,65.0,-100.00,SW,219,9.0,15.0,82,0.00,,,0.27,270.000000,,2013-07-13 13:53:00,
2013-07-13 09:02:00,71.0,65.0,-100.00,SW,219,9.0,15.0,82,0.00,,,0.27,270.000000,,2013-07-13 14:02:00,
2013-07-13 09:33:00,74.0,66.0,-100.00,SW,228,7.0,14.0,77,0.00,,,0.27,466.000000,,2013-07-13 14:33:00,
2013-07-13 09:44:00,74.0,66.0,-100.00,SW,228,7.0,14.0,77,0.00,,,0.27,466.000000,,2013-07-13 14:44:00,
2013-07-13 09:53:00,74.0,66.0,-100.00,SW,228,7.0,14.0,77,0.00,,,0.27,466.000000,,2013-07-13 14:53:00,
2013-07-13 10:02:00,74.0,66.0,-100.00,SW,228,7.0,14.0,77,0.00,,,0.27,466.000000,,2013-07-13 15:02:00,
2013-07-13 10:22:00,76.0,67.0,-100.00,WSW,243,7.0,14.0,75,0.00,,,0.27,616.000000,,2013-07-13 15:22:00,
2013-07-13 10:33:00,76.0,67.0,-100.00,WSW,243,7.0,14.0,75,0.00,,,0.27,616.000000,,2013-07-13 15:33:00,
2013-07-13 10:43:00,76.0,67.0,-100.00,WSW,243,7.0,14.0,75,0.00,,,0.27,616.000000,,2013-07-13 15:43:00,
2013-07-13 10:53:00,76.0,67.0,-100.00,WSW,243,7.0,14.0,75,0.00,,,0.27,616.000000,,2013-07-13 15:53:00,
2013-07-13 11:02:00,76.0,67.0,-100.00,WSW,243,7.0,14.0,75,0.00,,,0.27,616.000000,,2013-07-13 16:02:00,
2013-07-13 11:22:00,79.0,69.0,-100.00,West,270,5.0,11.0,71,0.00,,,0.27,719.000000,,2013-07-13 16:22:00,
2013-07-13 11:33:00,79.0,69.0,-100.00,West,270,5.0,11.0,71,0.00,,,0.27,719.000000,,2013-07-13 16:33:00,
2013-07-13 11:43:00,79.0,69.0,-100.00,West,270,5.0,11.0,71,0.00,,,0.27,719.000000,,2013-07-13 16:43:00,
2013-07-13 11:53:00,79.0,69.0,-100.00,West,270,5.0,11.0,71,0.00,,,0.27,719.000000,,2013-07-13 16:53:00,
2013-07-13 12:01:00,79.0,69.0,-100.00,West,270,5.0,11.0,71,0.00,,,0.27,719.000000,,2013-07-13 17:01:00,
2013-07-13 12:22:00,84.0,71.0,-100.00,NNE,17,3.0,9.0,65,0.00,,,0.27,963.000000,,2013-07-13 17:22:00,
2013-07-13 12:33:00,84.0,71.0,-100.00,NNE,17,3.0,9.0,65,0.00,,,0.27,963.000000,,2013-07-13 17:33:00,
2013-07-13 12:43:00,84.0,71.0,-100.00,NNE,17,3.0,9.0,65,0.00,,,0.27,963.000000,,2013-07-13 17:43:00,
2013-07-13 12:52:00,84.0,71.0,-100.00,NNE,17,3.0,9.0,65,0.00,,,0.27,963.000000,,2013-07-13 17:52:00,
2013-07-13 13:01:00,84.0,71.0,-100.00,NNE,17,3.0,9.0,65,0.00,,,0.27,963.000000,,2013-07-13 18:01:00,
2013-07-13 13:22:00,81.0,71.0,-100.00,SSW,205,7.0,13.0,71,0.00,,,0.27,507.000000,,2013-07-13 18:22:00,
2013-07-13 13:32:00,81.0,71.0,-100.00,SSW,205,7.0,13.0,71,0.00,,,0.27,507.000000,,2013-07-13 18:32:00,
2013-07-13 13:44:00,81.0,71.0,-100.00,SSW,205,7.0,13.0,71,0.00,,,0.27,507.000000,,2013-07-13 18:44:00,
2013-07-13 13:53:00,81.0,71.0,-100.00,SSW,205,7.0,13.0,71,0.00,,,0.27,507.000000,,2013-07-13 18:53:00,
2013-07-13 14:02:00,81.0,71.0,-100.00,SSW,205,7.0,13.0,71,0.00,,,0.27,507.000000,,2013-07-13 19:02:00,
2013-07-13 14:22:00,82.0,70.0,-100.00,South,173,8.0,14.0,67,0.00,,,0.27,835.000000,,2013-07-13 19:22:00,
2013-07-13 14:32:00,82.0,70.0,-100.00,South,173,8.0,14.0,67,0.00,,,0.27,835.000000,,2013-07-13 19:32:00,
2013-07-13 14:44:00,82.0,70.0,-100.00,South,173,8.0,14.0,67,0.00,,,0.27,835.000000,,2013-07-13 19:44:00,
2013-07-13 14:52:00,82.0,70.0,-100.00,South,173,8.0,14.0,67,0.00,,,0.27,835.000000,,2013-07-13 19:52:00,
2013-07-13 15:01:00,82.0,70.0,-100.00,South,173,8.0,14.0,67,0.00,,,0.27,835.000000,,2013-07-13 20:01:00,
2013-07-13 15:22:00,82.0,71.0,-100.00,South,187,9.0,14.0,70,0.00,,,0.27,756.000000,,2013-07-13 20:22:00,
2013-07-13 15:33:00,82.0,71.0,-100.00,South,187,9.0,14.0,70,0.00,,,0.27,756.000000,,2013-07-13 20:33:00,
2013-07-13 15:43:00,82.0,71.0,-100.00,South,187,9.0,14.0,70,0.00,,,0.27,756.000000,,2013-07-13 20:43:00,
2013-07-13 15:53:00,82.0,71.0,-100.00,South,187,9.0,14.0,70,0.00,,,0.27,756.000000,,2013-07-13 20:53:00,
2013-07-13 16:02:00,82.0,71.0,-100.00,South,187,9.0,14.0,70,0.00,,,0.27,756.000000,,2013-07-13 21:02:00,
2013-07-13 16:22:00,81.0,69.0,-100.00,South,175,9.0,15.0,67,0.00,,,0.27,773.000000,,2013-07-13 21:22:00,
2013-07-13 16:32:00,81.0,69.0,-100.00,South,175,9.0,15.0,67,0.00,,,0.27,773.000000,,2013-07-13 21:32:00,
2013-07-13 16:43:00,81.0,69.0,-100.00,South,175,9.0,15.0,67,0.00,,,0.27,773.000000,,2013-07-13 21:43:00,
2013-07-13 16:53:00,81.0,69.0,-100.00,South,175,9.0,15.0,67,0.00,,,0.27,773.000000,,2013-07-13 21:53:00,
2013-07-13 17:01:00,81.0,69.0,-100.00,South,175,9.0,15.0,67,0.00,,,0.27,773.000000,,2013-07-13 22:01:00,
2013-07-13 17:22:00,76.0,67.0,-100.00,South,173,13.0,19.0,75,0.00,,,0.27,400.000000,,2013-07-13 22:22:00,
2013-07-13 17:32:00,76.0,67.0,-100.00,South,173,13.0,19.0,75,0.00,,,0.27,400.000000,,2013-07-13 22:32:00,
2013-07-13 17:43:00,76.0,67.0,-100.00,South,173,13.0,19.0,75,0.00,,,0.27,400.000000,,2013-07-13 22:43:00,
2013-07-13 17:53:00,76.0,67.0,-100.00,South,173,13.0,19.0,75,0.00,,,0.27,400.000000,,2013-07-13 22:53:00,
2013-07-13 18:01:00,76.0,67.0,-100.00,South,173,13.0,19.0,75,0.00,,,0.27,400.000000,,2013-07-13 23:01:00,
2013-07-13 18:22:00,75.0,67.0,-100.00,SSW,192,10.0,16.0,77,0.00,,,0.27,364.000000,,2013-07-13 23:22:00,
2013-07-13 18:32:00,75.0,67.0,-100.00,SSW,192,10.0,16.0,77,0.00,,,0.27,364.000000,,2013-07-13 23:32:00,
2013-07-13 18:42:00,75.0,67.0,-100.00,SSW,192,10.0,16.0,77,0.00,,,0.27,364.000000,,2013-07-13 23:42:00,
2013-07-13 18:53:00,75.0,67.0,-100.00,SSW,192,10.0,16.0,77,0.00,,,0.27,364.000000,,2013-07-13 23:53:00,
2013-07-13 19:01:00,75.0,67.0,-100.00,SSW,192,10.0,16.0,77,0.00,,,0.27,364.000000,,2013-07-14 00:01:00,
2013-07-13 19:22:00,74.0,66.0,-100.00,SSW,209,8.0,15.0,77,0.00,,,0.27,193.000000,,2013-07-14 00:22:00,
2013-07-13 19:33:00,74.0,66.0,-100.00,SSW,209,8.0,15.0,77,0.00,,,0.27,193.000000,,2013-07-14 00:33:00,
2013-07-13 19:42:00,74.0,66.0,-100.00,SSW,209,8.0,15.0,77,0.00,,,0.27,193.000000,,2013-07-14 00:42:00,
2013-07-13 19:53:00,74.0,66.0,-100.00,SSW,209,8.0,15.0,77,0.00,,,0.27,193.000000,,2013-07-14 00:53:00,
2013-07-13 20:02:00,74.0,66.0,-100.00,SSW,209,8.0,15.0,77,0.00,,,0.27,193.000000,,2013-07-14 01:02:00,
2013-07-13 20:22:00,73.0,66.0,-100.00,South,184,8.0,13.0,78,0.00,,,0.27,119.000000,,2013-07-14 01:22:00,
2013-07-13 20:32:00,73.0,66.0,-100.00,South,184,8.0,13.0,78,0.00,,,0.27,119.000000,,2013-07-14 01:32:00,
2013-07-13 20:43:00,73.0,66.0,-100.00,South,184,8.0,13.0,78,0.00,,,0.27,119.000000,,2013-07-14 01:43:00,
2013-07-13 20:52:00,73.0,66.0,-100.00,South,184,8.0,13.0,78,0.00,,,0.27,119.000000,,2013-07-14 01:52:00,
2013-07-13 21:02:00,73.0,66.0,-100.00,South,184,8.0,13.0,78,0.00,,,0.27,119.000000,,2013-07-14 02:02:00,
2013-07-13 21:22:00,72.0,66.0,-100.00,SSW,195,8.0,14.0,82,0.00,,,0.27,18.000000,,2013-07-14 02:22:00,
2013-07-13 21:32:00,72.0,66.0,-100.00,SSW,195,8.0,14.0,82,0.00,,,0.27,18.000000,,2013-07-14 02:32:00,
2013-07-13 21:43:00,72.0,66.0,-100.00,SSW,195,8.0,14.0,82,0.00,,,0.27,18.000000,,2013-07-14 02:43:00,
2013-07-13 21:53:00,72.0,66.0,-100.00,SSW,195,8.0,14.0,82,0.00,,,0.27,18.000000,,2013-07-14 02:53:00,
2013-07-13 22:01:00,72.0,66.0,-100.00,SSW,195,8.0,14.0,82,0.00,,,0.27,18.000000,,2013-07-14 03:01:00,
2013-07-13 22:22:00,71.0,66.0,-100.00,South,179,7.0,11.0,85,0.00,,,0.27,0.000000,,2013-07-14 03:22:00,
2013-07-13 22:32:00,71.0,66.0,-100.00,South,179,7.0,11.0,85,0.00,,,0.27,0.000000,,2013-07-14 03:32:00,
2013-07-13 22:43:00,71.0,66.0,-100.00,South,179,7.0,11.0,85,0.00,,,0.27,0.000000,,2013-07-14 03:43:00,
2013-07-13 22:53:00,71.0,66.0,-100.00,South,179,7.0,11.0,85,0.00,,,0.27,0.000000,,2013-07-14 03:53:00,
2013-07-13 23:02:00,71.0,66.0,-100.00,South,179,7.0,11.0,85,0.00,,,0.27,0.000000,,2013-07-14 04:02:00,
2013-07-13 23:22:00,71.0,67.0,-100.00,SSW,193,7.0,11.0,88,0.00,,,0.27,0.000000,,2013-07-14 04:22:00,
2013-07-13 23:32:00,71.0,67.0,-100.00,SSW,193,7.0,11.0,88,0.00,,,0.27,0.000000,,2013-07-14 04:32:00,
2013-07-13 23:42:00,71.0,67.0,-100.00,SSW,193,7.0,11.0,88,0.00,,,0.27,0.000000,,2013-07-14 04:42:00,
2013-07-13 23:54:00,71.0,67.0,-100.00,SSW,193,7.0,11.0,88,0.00,,,0.27,0.000000,,2013-07-14 04:54:00,